Time;durP1;ratioP1;P1;durP2;ratioP2;P2;SDS_P1;SDS_P2;PMS_P1;PMS_P2;Temp;Humidity;BMP_temperature;BMP_pressure;BME280_temperature;BME280_humidity;BME280_pressure;Samples;Min_cycle;Max_cycle;Signal;HPM_P1;HPM_P2
2022/08/21 00:01:52;;;;;;;0.47;0.47;;;;;;;;;;7387710;19;20145;-71
2022/08/21 00:04:17;;;;;;;0.30;0.30;;;;;;;;;;7382987;19;20216;-73
2022/08/21 00:06:42;;;;;;;0.30;0.30;;;;;;;;;;7385694;19;20117;-71
2022/08/21 00:09:08;;;;;;;0.30;0.30;;;;;;;;;;7383328;19;20525;-71
2022/08/21 00:11:34;;;;;;;0.50;0.50;;;;;;;;;;7387104;19;20147;-72
2022/08/21 00:14:00;;;;;;;0.35;0.35;;;;;;;;;;7390149;19;20157;-71
2022/08/21 00:16:25;;;;;;;0.30;0.30;;;;;;;;;;7395492;19;20160;-72
2022/08/21 00:18:50;;;;;;;0.30;0.30;;;;;;;;;;7396496;19;20150;-71
2022/08/21 00:21:16;;;;;;;0.30;0.30;;;;;;;;;;7394876;19;20536;-72
2022/08/21 00:23:42;;;;;;;0.30;0.30;;;;;;;;;;7393460;19;20161;-71
2022/08/21 00:26:07;;;;;;;0.60;0.60;;;;;;;;;;7393530;19;20121;-71
2022/08/21 00:28:33;;;;;;;0.30;0.30;;;;;;;;;;7394747;19;20558;-72
2022/08/21 00:30:59;;;;;;;0.30;0.30;;;;;;;;;;7388226;19;20120;-72
2022/08/21 00:33:25;;;;;;;1.00;0.55;;;;;;;;;;7389023;19;20236;-72
2022/08/21 00:35:51;;;;;;;0.20;0.20;;;;;;;;;;7384519;19;20858;-72
2022/08/21 00:38:16;;;;;;;0.30;0.30;;;;;;;;;;7385381;19;20125;-72
2022/08/21 00:40:48;;;;;;;0.30;0.30;;;;;;;;;;7379565;19;20673;-72
2022/08/21 00:43:16;;;;;;;0.30;0.30;;;;;;;;;;7390411;19;20167;-73
2022/08/21 00:45:42;;;;;;;0.20;0.20;;;;;;;;;;7392397;19;20117;-71
2022/08/21 00:48:07;;;;;;;0.40;0.40;;;;;;;;;;7392752;19;20156;-71
2022/08/21 00:50:35;;;;;;;0.30;0.30;;;;;;;;;;7389055;19;20509;-72
2022/08/21 00:53:02;;;;;;;0.30;0.30;;;;;;;;;;7390383;19;20156;-72
2022/08/21 00:55:29;;;;;;;0.30;0.30;;;;;;;;;;7392632;19;20129;-71
2022/08/21 00:57:57;;;;;;;0.30;0.30;;;;;;;;;;7393509;19;20117;-71
2022/08/21 01:00:32;;;;;;;0.20;0.20;;;;;;;;;;7392686;19;20125;-71
2022/08/21 01:02:59;;;;;;;0.30;0.30;;;;;;;;;;7384908;19;20625;-71
2022/08/21 01:05:26;;;;;;;0.40;0.40;;;;;;;;;;7390277;19;20124;-71
2022/08/21 01:07:52;;;;;;;0.30;0.30;;;;;;;;;;7392559;19;20156;-71
2022/08/21 01:10:18;;;;;;;0.30;0.30;;;;;;;;;;7392132;19;20128;-72
2022/08/21 01:12:43;;;;;;;0.30;0.30;;;;;;;;;;7392830;19;20685;-71
2022/08/21 01:15:10;;;;;;;0.30;0.30;;;;;;;;;;7393650;19;20117;-72
2022/08/21 01:17:35;;;;;;;0.22;0.22;;;;;;;;;;7393240;19;20180;-71
2022/08/21 01:20:05;;;;;;;0.60;0.60;;;;;;;;;;7392823;19;20166;-71
2022/08/21 01:22:32;;;;;;;0.30;0.30;;;;;;;;;;7389148;19;20228;-71
2022/08/21 01:24:57;;;;;;;0.30;0.30;;;;;;;;;;7393931;19;20567;-71
2022/08/21 01:27:22;;;;;;;1.70;0.85;;;;;;;;;;7393145;19;20121;-72
2022/08/21 01:29:56;;;;;;;0.30;0.30;;;;;;;;;;7393650;19;20152;-71
2022/08/21 01:32:22;;;;;;;0.30;0.30;;;;;;;;;;7391070;19;20235;-71
2022/08/21 01:34:49;;;;;;;0.30;0.30;;;;;;;;;;7391960;19;20208;-72
2022/08/21 01:37:14;;;;;;;0.30;0.30;;;;;;;;;;7391694;19;20133;-71
2022/08/21 01:39:41;;;;;;;0.30;0.30;;;;;;;;;;7392925;19;20924;-71
2022/08/21 01:42:06;;;;;;;0.40;0.40;;;;;;;;;;7390469;19;20149;-72
2022/08/21 01:44:32;;;;;;;0.30;0.30;;;;;;;;;;7390867;19;20757;-71
2022/08/21 01:47:00;;;;;;;0.30;0.30;;;;;;;;;;7390386;19;20129;-71
2022/08/21 01:49:25;;;;;;;0.30;0.30;;;;;;;;;;7391050;19;20208;-71
2022/08/21 01:51:51;;;;;;;0.45;0.45;;;;;;;;;;7391284;19;20129;-73
2022/08/21 01:54:17;;;;;;;0.40;0.40;;;;;;;;;;7390210;19;20133;-71
2022/08/21 01:56:46;;;;;;;0.30;0.30;;;;;;;;;;7391104;19;20148;-71
2022/08/21 01:59:12;;;;;;;0.60;0.60;;;;;;;;;;7391022;19;20591;-73
2022/08/21 02:01:39;;;;;;;0.30;0.30;;;;;;;;;;7391956;19;20122;-72
2022/08/21 02:04:04;;;;;;;0.30;0.30;;;;;;;;;;7387891;19;20148;-71
2022/08/21 02:06:30;;;;;;;0.30;0.30;;;;;;;;;;7391393;19;20155;-71
2022/08/21 02:08:55;;;;;;;0.47;0.47;;;;;;;;;;7390193;19;20125;-72
2022/08/21 02:11:20;;;;;;;0.30;0.30;;;;;;;;;;7389957;19;20427;-71
2022/08/21 02:13:46;;;;;;;0.43;0.32;;;;;;;;;;7388710;19;20159;-72
2022/08/21 02:16:12;;;;;;;0.32;0.32;;;;;;;;;;7391062;19;20607;-72
2022/08/21 02:18:37;;;;;;;0.30;0.30;;;;;;;;;;7390964;19;20121;-71
2022/08/21 02:21:04;;;;;;;0.35;0.35;;;;;;;;;;7391953;19;20156;-71
2022/08/21 02:23:30;;;;;;;0.30;0.30;;;;;;;;;;7388588;19;20774;-72
2022/08/21 02:25:57;;;;;;;0.30;0.30;;;;;;;;;;7389791;19;20168;-71
2022/08/21 02:28:23;;;;;;;0.30;0.30;;;;;;;;;;7389976;19;20133;-71
2022/08/21 02:30:49;;;;;;;0.30;0.30;;;;;;;;;;7390232;19;20143;-72
2022/08/21 02:33:15;;;;;;;0.20;0.20;;;;;;;;;;7387775;19;20165;-72
2022/08/21 02:35:41;;;;;;;0.30;0.30;;;;;;;;;;7386672;19;20211;-72
2022/08/21 02:38:09;;;;;;;0.30;0.30;;;;;;;;;;7389133;19;20121;-72
2022/08/21 02:40:37;;;;;;;0.38;0.38;;;;;;;;;;7389811;19;20610;-71
2022/08/21 02:43:04;;;;;;;0.30;0.30;;;;;;;;;;7388730;19;20228;-72
2022/08/21 02:45:29;;;;;;;0.95;0.95;;;;;;;;;;7388827;19;20139;-72
2022/08/21 02:47:57;;;;;;;0.30;0.30;;;;;;;;;;7389750;19;20117;-71
2022/08/21 02:50:26;;;;;;;0.30;0.30;;;;;;;;;;7391302;19;20125;-71
2022/08/21 02:52:52;;;;;;;0.30;0.30;;;;;;;;;;7388094;19;20159;-72
2022/08/21 02:55:20;;;;;;;0.30;0.30;;;;;;;;;;7388714;19;20204;-71
2022/08/21 02:57:45;;;;;;;0.30;0.30;;;;;;;;;;7389409;19;20542;-73
2022/08/21 03:00:12;;;;;;;0.30;0.30;;;;;;;;;;7389191;19;20133;-72
2022/08/21 03:02:38;;;;;;;0.20;0.20;;;;;;;;;;7389512;19;20604;-72
2022/08/21 03:05:05;;;;;;;0.30;0.30;;;;;;;;;;7385918;19;20165;-71
2022/08/21 03:07:30;;;;;;;0.50;0.50;;;;;;;;;;7389459;19;20140;-71
2022/08/21 03:09:55;;;;;;;0.30;0.30;;;;;;;;;;7389456;19;20134;-72
2022/08/21 03:12:21;;;;;;;0.30;0.30;;;;;;;;;;7390813;19;20687;-71
2022/08/21 03:14:46;;;;;;;0.30;0.30;;;;;;;;;;7389246;19;20583;-71
2022/08/21 03:17:12;;;;;;;0.30;0.30;;;;;;;;;;7389410;19;20480;-73
2022/08/21 03:19:37;;;;;;;0.30;0.30;;;;;;;;;;7381279;19;20662;-71
2022/08/21 03:22:02;;;;;;;0.30;0.30;;;;;;;;;;7386858;19;20169;-72
2022/08/21 03:24:28;;;;;;;0.75;0.75;;;;;;;;;;7385927;19;20175;-71
2022/08/21 03:26:53;;;;;;;0.30;0.30;;;;;;;;;;7387100;19;20620;-71
2022/08/21 03:29:18;;;;;;;0.30;0.30;;;;;;;;;;7388242;19;20167;-73
2022/08/21 03:31:44;;;;;;;0.20;0.20;;;;;;;;;;7382892;19;20113;-71
2022/08/21 03:34:09;;;;;;;0.30;0.30;;;;;;;;;;7386379;19;20136;-71
2022/08/21 03:36:35;;;;;;;0.30;0.30;;;;;;;;;;7390039;19;20143;-72
2022/08/21 03:39:00;;;;;;;0.40;0.40;;;;;;;;;;7390731;19;20471;-72
2022/08/21 03:41:25;;;;;;;0.30;0.30;;;;;;;;;;7384115;19;20424;-72
2022/08/21 03:43:51;;;;;;;0.32;0.32;;;;;;;;;;7383932;19;20168;-72
2022/08/21 03:46:16;;;;;;;0.30;0.30;;;;;;;;;;7387220;19;20141;-71
2022/08/21 03:48:41;;;;;;;0.35;0.35;;;;;;;;;;7387434;19;20149;-71
2022/08/21 03:51:10;;;;;;;0.30;0.30;;;;;;;;;;7387968;19;20129;-71
2022/08/21 03:53:36;;;;;;;0.30;0.30;;;;;;;;;;7382825;19;20951;-71
2022/08/21 03:56:02;;;;;;;0.30;0.30;;;;;;;;;;7386292;19;20157;-73
2022/08/21 03:58:28;;;;;;;0.30;0.30;;;;;;;;;;7387106;19;20145;-71
2022/08/21 04:00:57;;;;;;;0.30;0.30;;;;;;;;;;7380333;19;20471;-72
2022/08/21 04:03:23;;;;;;;0.30;0.30;;;;;;;;;;7386073;19;20159;-71
2022/08/21 04:05:49;;;;;;;0.20;0.20;;;;;;;;;;7378119;19;20467;-72
2022/08/21 04:08:18;;;;;;;0.30;0.30;;;;;;;;;;7382590;19;20125;-71
2022/08/21 04:10:45;;;;;;;0.25;0.25;;;;;;;;;;7384302;19;20129;-71
2022/08/21 04:13:10;;;;;;;0.30;0.30;;;;;;;;;;7378202;19;20177;-72
2022/08/21 04:15:36;;;;;;;0.45;0.45;;;;;;;;;;7378474;19;20475;-71
2022/08/21 04:18:01;;;;;;;0.30;0.30;;;;;;;;;;7384745;19;20603;-71
2022/08/21 04:20:27;;;;;;;0.30;0.30;;;;;;;;;;7389300;19;20109;-71
2022/08/21 04:22:52;;;;;;;0.30;0.30;;;;;;;;;;7386202;19;20153;-72
2022/08/21 04:25:20;;;;;;;0.20;0.20;;;;;;;;;;7386397;19;20133;-71
2022/08/21 04:27:45;;;;;;;0.30;0.30;;;;;;;;;;7388414;19;20196;-72
2022/08/21 04:30:12;;;;;;;0.30;0.30;;;;;;;;;;7386261;19;20595;-71
2022/08/21 04:32:38;;;;;;;0.30;0.30;;;;;;;;;;7385686;19;20145;-71
2022/08/21 04:35:06;;;;;;;0.40;0.40;;;;;;;;;;7384675;19;20117;-71
2022/08/21 04:37:32;;;;;;;0.30;0.30;;;;;;;;;;7386728;19;20149;-71
2022/08/21 04:39:58;;;;;;;0.30;0.30;;;;;;;;;;7386688;19;20519;-71
2022/08/21 04:42:27;;;;;;;0.55;0.55;;;;;;;;;;7384675;19;20177;-72
2022/08/21 04:44:53;;;;;;;0.40;0.40;;;;;;;;;;7385872;19;20211;-72
2022/08/21 04:47:18;;;;;;;0.20;0.20;;;;;;;;;;7386623;19;20590;-71
2022/08/21 04:49:44;;;;;;;0.30;0.30;;;;;;;;;;7384910;19;20112;-74
2022/08/21 16:45:43;;;;;;;0.30;0.30;;;;;;;;;;7379538;19;20200;-74
2022/08/21 16:48:09;;;;;;;0.30;0.30;;;;;;;;;;7382426;19;20334;-74
2022/08/21 16:50:36;;;;;;;1.65;1.05;;;;;;;;;;7383600;19;20148;-74
2022/08/21 16:53:02;;;;;;;0.30;0.30;;;;;;;;;;7380871;19;22057;-74
2022/08/21 16:55:27;;;;;;;0.30;0.30;;;;;;;;;;7378812;19;20137;-74
2022/08/21 16:57:53;;;;;;;0.30;0.30;;;;;;;;;;7378035;19;20156;-74
2022/08/21 17:00:19;;;;;;;0.30;0.30;;;;;;;;;;7382805;19;20146;-75
2022/08/21 17:02:48;;;;;;;0.30;0.30;;;;;;;;;;7386335;19;20481;-74
2022/08/21 17:05:14;;;;;;;0.47;0.47;;;;;;;;;;7383005;19;20533;-74
2022/08/21 17:07:41;;;;;;;0.40;0.40;;;;;;;;;;7390692;19;20135;-74
2022/08/21 17:10:07;;;;;;;0.30;0.30;;;;;;;;;;7388773;19;20145;-74
2022/08/21 17:12:33;;;;;;;0.30;0.30;;;;;;;;;;7382750;19;20501;-74
2022/08/21 17:15:04;;;;;;;0.30;0.30;;;;;;;;;;7387339;19;20627;-74
2022/08/21 17:17:29;;;;;;;0.40;0.40;;;;;;;;;;7387956;19;20611;-74
2022/08/21 17:19:54;;;;;;;0.30;0.30;;;;;;;;;;7385401;19;20145;-74
2022/08/21 17:22:20;;;;;;;0.40;0.40;;;;;;;;;;7373625;19;20193;-74
2022/08/21 17:24:45;;;;;;;0.43;0.43;;;;;;;;;;7381917;19;20125;-74
2022/08/21 17:27:11;;;;;;;0.30;0.30;;;;;;;;;;7375595;19;20140;-74
2022/08/21 17:29:39;;;;;;;0.35;0.35;;;;;;;;;;7374788;19;20586;-74
2022/08/21 17:32:10;;;;;;;0.30;0.30;;;;;;;;;;7368938;19;20204;-74
2022/08/21 17:34:36;;;;;;;0.45;0.45;;;;;;;;;;7375088;19;20152;-74
2022/08/21 17:37:01;;;;;;;0.40;0.40;;;;;;;;;;7371992;19;20208;-74
2022/08/21 17:39:26;;;;;;;0.30;0.30;;;;;;;;;;7384267;19;20479;-74
2022/08/21 17:41:52;;;;;;;0.57;0.57;;;;;;;;;;7381383;19;20249;-74
2022/08/21 17:44:19;;;;;;;0.30;0.30;;;;;;;;;;7384649;19;20144;-74
2022/08/21 17:46:45;;;;;;;0.30;0.30;;;;;;;;;;7389636;19;20169;-74
2022/08/21 17:49:10;;;;;;;0.30;0.30;;;;;;;;;;7381750;19;20133;-74
2022/08/21 17:51:36;;;;;;;0.40;0.40;;;;;;;;;;7374034;19;20129;-74
2022/08/21 17:54:01;;;;;;;0.50;0.50;;;;;;;;;;7376281;19;20153;-74
2022/08/21 17:56:30;;;;;;;0.50;0.50;;;;;;;;;;7376879;19;20142;-74
2022/08/21 17:58:56;;;;;;;0.30;0.30;;;;;;;;;;7381756;19;20161;-74
2022/08/21 18:01:21;;;;;;;0.30;0.30;;;;;;;;;;7382768;19;20543;-74
2022/08/21 18:03:47;;;;;;;1.33;1.25;;;;;;;;;;7388394;19;20191;-74
2022/08/21 18:06:13;;;;;;;0.52;0.52;;;;;;;;;;7371899;19;20607;-74
2022/08/21 18:08:39;;;;;;;0.30;0.30;;;;;;;;;;7372852;19;20629;-74
2022/08/21 18:11:04;;;;;;;0.43;0.43;;;;;;;;;;7382567;19;20197;-74
2022/08/21 18:13:33;;;;;;;0.50;0.50;;;;;;;;;;7389350;19;20550;-75
2022/08/21 18:15:59;;;;;;;0.40;0.40;;;;;;;;;;7384929;19;20620;-74
2022/08/21 18:18:26;;;;;;;0.40;0.40;;;;;;;;;;7377124;19;20114;-74
2022/08/21 18:20:52;;;;;;;0.38;0.38;;;;;;;;;;7369643;19;20842;-74
2022/08/21 18:23:18;;;;;;;0.30;0.30;;;;;;;;;;7381860;19;20184;-74
2022/08/21 18:25:47;;;;;;;0.30;0.30;;;;;;;;;;7379126;19;20172;-74
2022/08/21 18:28:13;;;;;;;0.30;0.30;;;;;;;;;;7390082;19;20140;-74
2022/08/21 18:30:40;;;;;;;0.30;0.30;;;;;;;;;;7376171;19;20144;-74
2022/08/21 18:33:07;;;;;;;0.30;0.30;;;;;;;;;;7377488;19;20180;-74
2022/08/21 18:35:32;;;;;;;0.30;0.30;;;;;;;;;;7387336;19;20496;-74
2022/08/21 18:37:57;;;;;;;0.38;0.35;;;;;;;;;;7387463;19;20134;-74
2022/08/21 18:40:23;;;;;;;0.38;0.38;;;;;;;;;;7389698;19;20176;-74
2022/08/21 18:42:48;;;;;;;0.30;0.30;;;;;;;;;;7389279;19;20153;-74
2022/08/21 18:45:16;;;;;;;0.70;0.70;;;;;;;;;;7389537;19;20144;-74
2022/08/21 18:47:45;;;;;;;0.30;0.30;;;;;;;;;;7382785;19;20156;-74
2022/08/21 18:50:13;;;;;;;0.30;0.30;;;;;;;;;;7383411;19;20140;-74
2022/08/21 18:52:39;;;;;;;0.30;0.30;;;;;;;;;;7387922;19;20850;-74
2022/08/21 18:55:06;;;;;;;0.20;0.20;;;;;;;;;;7383034;19;20220;-74
2022/08/21 18:57:31;;;;;;;0.38;0.38;;;;;;;;;;7387010;19;20144;-74
2022/08/21 18:59:56;;;;;;;0.30;0.30;;;;;;;;;;7382733;19;20145;-74
2022/08/21 19:02:22;;;;;;;0.30;0.30;;;;;;;;;;7380993;19;20149;-74
2022/08/21 19:04:47;;;;;;;0.40;0.40;;;;;;;;;;7387101;19;20156;-74
2022/08/21 19:07:13;;;;;;;0.30;0.30;;;;;;;;;;7375182;19;20152;-74
2022/08/21 19:09:39;;;;;;;0.30;0.30;;;;;;;;;;7383957;19;20125;-73
2022/08/21 19:12:05;;;;;;;0.32;0.32;;;;;;;;;;7382506;19;20650;-73
2022/08/21 19:14:32;;;;;;;0.30;0.30;;;;;;;;;;7379618;19;20165;-74
2022/08/21 19:16:57;;;;;;;0.40;0.40;;;;;;;;;;7388886;19;20125;-74
2022/08/21 19:19:23;;;;;;;0.47;0.47;;;;;;;;;;7382669;19;20148;-74
2022/08/21 19:21:48;;;;;;;0.30;0.30;;;;;;;;;;7386604;19;20129;-74
2022/08/21 19:24:13;;;;;;;0.30;0.30;;;;;;;;;;7388855;19;20148;-74
2022/08/21 19:26:39;;;;;;;0.30;0.30;;;;;;;;;;7388522;19;20156;-74
2022/08/21 19:29:06;;;;;;;0.28;0.28;;;;;;;;;;7386331;19;20697;-73
2022/08/21 19:31:39;;;;;;;0.30;0.30;;;;;;;;;;7388386;19;20157;-74
2022/08/21 19:34:11;;;;;;;0.30;0.30;;;;;;;;;;7384101;19;20157;-74
2022/08/21 19:36:37;;;;;;;0.30;0.30;;;;;;;;;;7389120;19;20117;-74
2022/08/21 19:39:03;;;;;;;0.30;0.30;;;;;;;;;;7387356;19;20148;-74
2022/08/21 19:41:32;;;;;;;0.50;0.50;;;;;;;;;;7371332;19;20135;-74
2022/08/21 19:44:01;;;;;;;0.30;0.30;;;;;;;;;;7378465;19;20172;-73
2022/08/21 19:46:39;;;;;;;0.40;0.40;;;;;;;;;;7373534;19;20154;-74
2022/08/21 19:49:07;;;;;;;0.30;0.30;;;;;;;;;;7382758;19;20121;-74
2022/08/21 19:51:34;;;;;;;0.30;0.30;;;;;;;;;;7389524;19;20598;-73
2022/08/21 19:53:59;;;;;;;0.35;0.35;;;;;;;;;;7385221;19;20615;-73
2022/08/21 19:56:27;;;;;;;0.30;0.30;;;;;;;;;;7389019;19;20127;-74
2022/08/21 19:58:53;;;;;;;0.30;0.30;;;;;;;;;;7386299;19;20137;-74
2022/08/21 20:01:21;;;;;;;0.30;0.30;;;;;;;;;;7376562;19;20141;-74
2022/08/21 20:03:47;;;;;;;0.30;0.30;;;;;;;;;;7369825;19;20155;-73
2022/08/21 20:06:15;;;;;;;0.30;0.30;;;;;;;;;;7383437;19;20168;-73
2022/08/21 20:08:41;;;;;;;0.30;0.30;;;;;;;;;;7386408;19;20161;-73
2022/08/21 20:11:07;;;;;;;0.30;0.30;;;;;;;;;;7383197;19;20136;-73
2022/08/21 20:13:33;;;;;;;0.30;0.30;;;;;;;;;;7387223;19;20152;-73
2022/08/21 20:16:00;;;;;;;0.30;0.30;;;;;;;;;;7387135;19;20161;-73
2022/08/21 20:18:25;;;;;;;0.30;0.30;;;;;;;;;;7380180;19;20623;-74
2022/08/21 20:20:51;;;;;;;0.30;0.30;;;;;;;;;;7388262;19;20212;-73
2022/08/21 20:23:18;;;;;;;0.30;0.30;;;;;;;;;;7387316;19;20565;-73
2022/08/21 20:25:44;;;;;;;0.32;0.32;;;;;;;;;;7379068;19;20546;-74
2022/08/21 20:28:10;;;;;;;0.20;0.20;;;;;;;;;;7388792;19;20158;-74
2022/08/21 20:30:35;;;;;;;0.30;0.30;;;;;;;;;;7396243;19;20370;-73
2022/08/21 20:33:01;;;;;;;1.25;1.15;;;;;;;;;;7396248;19;20560;-74
2022/08/21 20:35:26;;;;;;;0.30;0.30;;;;;;;;;;7394834;19;20474;-73
2022/08/21 20:37:51;;;;;;;0.30;0.30;;;;;;;;;;7395200;19;20148;-74
2022/08/21 20:40:17;;;;;;;0.30;0.30;;;;;;;;;;7394830;19;20464;-73
2022/08/21 20:42:46;;;;;;;0.30;0.30;;;;;;;;;;7395463;19;20149;-74
2022/08/21 20:45:17;;;;;;;0.30;0.30;;;;;;;;;;7395830;19;20146;-74
2022/08/21 20:47:44;;;;;;;0.30;0.30;;;;;;;;;;7394459;19;20200;-73
2022/08/21 20:50:11;;;;;;;0.30;0.30;;;;;;;;;;7384312;19;20145;-74
2022/08/21 20:52:37;;;;;;;0.73;0.73;;;;;;;;;;7390820;19;20180;-74
2022/08/21 20:55:14;;;;;;;0.30;0.30;;;;;;;;;;7394936;19;20483;-75
2022/08/21 20:57:48;;;;;;;0.30;0.30;;;;;;;;;;7394661;19;20144;-74
2022/08/21 21:00:16;;;;;;;0.30;0.30;;;;;;;;;;7392319;19;20160;-73
2022/08/21 21:02:51;;;;;;;0.30;0.30;;;;;;;;;;7377771;19;20682;-73
2022/08/21 21:05:21;;;;;;;0.30;0.30;;;;;;;;;;7386436;19;20320;-72
2022/08/21 21:07:54;;;;;;;0.30;0.30;;;;;;;;;;7393925;19;20128;-73
2022/08/21 21:10:57;;;;;;;0.70;0.70;;;;;;;;;;7391629;19;20125;-73
2022/08/21 21:13:35;;;;;;;0.30;0.30;;;;;;;;;;7389237;19;20661;-74
2022/08/21 21:16:32;;;;;;;0.20;0.20;;;;;;;;;;7391424;19;20180;-74
2022/08/21 21:19:00;;;;;;;0.30;0.30;;;;;;;;;;7384496;19;20228;-74
2022/08/21 21:21:36;;;;;;;0.38;0.38;;;;;;;;;;7385255;19;20184;-74
2022/08/21 21:24:10;;;;;;;0.30;0.30;;;;;;;;;;7388684;19;20626;-73
2022/08/21 21:26:51;;;;;;;0.30;0.30;;;;;;;;;;7390752;19;20152;-75
2022/08/21 21:29:20;;;;;;;0.32;0.32;;;;;;;;;;7385566;19;20567;-74
2022/08/21 21:31:45;;;;;;;0.30;0.30;;;;;;;;;;7385996;19;20558;-74
2022/08/21 21:34:11;;;;;;;1.02;1.02;;;;;;;;;;7387813;19;20156;-74
2022/08/21 21:36:49;;;;;;;0.30;0.30;;;;;;;;;;7385204;19;20117;-74
2022/08/21 21:39:27;;;;;;;0.30;0.30;;;;;;;;;;7385868;19;20144;-74
2022/08/21 21:41:58;;;;;;;0.28;0.28;;;;;;;;;;7382545;19;20148;-74
2022/08/21 21:44:35;;;;;;;0.60;0.60;;;;;;;;;;7388665;19;20137;-74
2022/08/21 21:47:26;;;;;;;0.40;0.40;;;;;;;;;;7389502;19;20132;-74
2022/08/21 21:50:13;;;;;;;0.20;0.20;;;;;;;;;;7392427;19;20129;-74
2022/08/21 21:52:46;;;;;;;0.30;0.30;;;;;;;;;;7379618;19;20145;-74
2022/08/21 21:55:32;;;;;;;0.30;0.30;;;;;;;;;;7390229;19;20208;-73
2022/08/21 21:58:10;;;;;;;0.30;0.30;;;;;;;;;;7372667;19;20216;-74
2022/08/21 22:00:39;;;;;;;0.30;0.30;;;;;;;;;;7391391;19;20480;-74
2022/08/21 22:03:10;;;;;;;0.30;0.30;;;;;;;;;;7382334;19;20286;-74
2022/08/21 22:05:48;;;;;;;0.30;0.30;;;;;;;;;;7390105;19;20210;-74
2022/08/21 22:08:22;;;;;;;0.40;0.40;;;;;;;;;;7390859;19;20144;-74
2022/08/21 22:10:56;;;;;;;0.30;0.30;;;;;;;;;;7388708;19;20535;-74
2022/08/21 22:13:45;;;;;;;0.30;0.30;;;;;;;;;;7370987;19;20160;-74
2022/08/21 22:16:11;;;;;;;0.20;0.20;;;;;;;;;;7378581;19;20152;-74
2022/08/21 22:18:47;;;;;;;0.20;0.20;;;;;;;;;;7376127;19;20144;-74
2022/08/21 22:21:44;;;;;;;0.45;0.45;;;;;;;;;;7375958;19;20136;-74
2022/08/21 22:24:21;;;;;;;0.40;0.40;;;;;;;;;;7376559;19;20622;-74
2022/08/21 22:26:49;;;;;;;0.30;0.30;;;;;;;;;;7374477;19;20124;-74
2022/08/21 22:29:18;;;;;;;0.40;0.40;;;;;;;;;;7383469;19;20128;-74
2022/08/21 22:31:43;;;;;;;0.30;0.30;;;;;;;;;;7378822;19;20133;-74
2022/08/21 22:34:10;;;;;;;3.50;0.73;;;;;;;;;;7378132;19;20833;-74
2022/08/21 22:36:39;;;;;;;0.30;0.30;;;;;;;;;;7379619;19;20129;-74
2022/08/21 22:39:13;;;;;;;0.20;0.20;;;;;;;;;;7375923;19;20486;-74
2022/08/21 22:41:42;;;;;;;0.30;0.30;;;;;;;;;;7377377;19;20188;-74
2022/08/21 22:44:18;;;;;;;0.30;0.30;;;;;;;;;;7373657;19;20124;-74
2022/08/21 22:46:46;;;;;;;0.30;0.30;;;;;;;;;;7383344;19;20140;-74
2022/08/21 22:49:23;;;;;;;0.55;0.55;;;;;;;;;;7379830;19;20160;-74
2022/08/21 22:51:49;;;;;;;0.30;0.30;;;;;;;;;;7379001;19;20134;-74
2022/08/21 22:54:28;;;;;;;0.30;0.30;;;;;;;;;;7378861;19;20153;-75
2022/08/21 22:57:04;;;;;;;0.40;0.40;;;;;;;;;;7382978;19;20131;-74
2022/08/21 22:59:35;;;;;;;0.30;0.30;;;;;;;;;;7379765;19;20742;-74
2022/08/21 23:02:04;;;;;;;0.20;0.20;;;;;;;;;;7375416;19;20602;-74
2022/08/21 23:04:29;;;;;;;0.57;0.38;;;;;;;;;;7365714;19;20133;-73
2022/08/21 23:06:58;;;;;;;0.30;0.30;;;;;;;;;;7376537;19;20137;-74
2022/08/21 23:09:26;;;;;;;0.30;0.30;;;;;;;;;;7380065;19;20148;-74
2022/08/21 23:11:54;;;;;;;0.30;0.30;;;;;;;;;;7371609;19;20564;-74
2022/08/21 23:14:20;;;;;;;0.30;0.30;;;;;;;;;;7377148;19;20150;-74
2022/08/21 23:17:03;;;;;;;0.30;0.30;;;;;;;;;;7380183;19;20121;-74
2022/08/21 23:19:44;;;;;;;0.30;0.30;;;;;;;;;;7371171;19;20138;-73
2022/08/21 23:22:35;;;;;;;0.30;0.30;;;;;;;;;;7369350;19;20718;-74
2022/08/21 23:25:43;;;;;;;0.30;0.30;;;;;;;;;;7375471;19;20149;-74
2022/08/21 23:28:30;;;;;;;0.20;0.20;;;;;;;;;;7375627;19;20164;-73
2022/08/21 23:31:17;;;;;;;0.30;0.30;;;;;;;;;;7373059;19;20140;-74
2022/08/21 23:33:46;;;;;;;0.30;0.30;;;;;;;;;;7364668;19;20148;-74
2022/08/21 23:38:58;;;;;;;0.30;0.30;;;;;;;;;;7370583;19;20116;-73
2022/08/21 23:41:43;;;;;;;0.28;0.28;;;;;;;;;;7373242;19;20602;-73
2022/08/21 23:44:14;;;;;;;0.30;0.30;;;;;;;;;;7373726;19;20166;-74
2022/08/21 23:46:46;;;;;;;0.30;0.30;;;;;;;;;;7383234;19;20117;-73
2022/08/21 23:49:20;;;;;;;0.30;0.30;;;;;;;;;;7387058;19;20607;-74
2022/08/21 23:52:13;;;;;;;0.30;0.30;;;;;;;;;;7378711;19;20613;-74
2022/08/21 23:54:58;;;;;;;0.30;0.30;;;;;;;;;;7374269;19;20140;-74
2022/08/21 23:57:38;;;;;;;0.20;0.20;;;;;;;;;;7388503;19;20137;-74
